sensor_id;sensor_type;location;lat;lon;timestamp;P1;durP1;ratioP1;P2;durP2;ratioP2
48203;SDS011;33994;50.998;5.864;2023-07-31T00:02:44;8.90;;;3.97;;
48203;SDS011;33994;50.998;5.864;2023-07-31T00:05:49;9.25;;;4.22;;
48203;SDS011;33994;50.998;5.864;2023-07-31T00:08:52;11.45;;;4.03;;
48203;SDS011;33994;50.998;5.864;2023-07-31T00:11:55;9.07;;;3.45;;
48203;SDS011;33994;50.998;5.864;2023-07-31T00:14:58;13.43;;;3.95;;
48203;SDS011;33994;50.998;5.864;2023-07-31T00:18:02;12.05;;;3.65;;
48203;SDS011;33994;50.998;5.864;2023-07-31T00:21:06;13.88;;;3.72;;
48203;SDS011;33994;50.998;5.864;2023-07-31T00:24:09;16.13;;;4.20;;
48203;SDS011;33994;50.998;5.864;2023-07-31T00:27:12;11.77;;;3.47;;
48203;SDS011;33994;50.998;5.864;2023-07-31T00:30:16;12.32;;;3.78;;
48203;SDS011;33994;50.998;5.864;2023-07-31T00:33:19;10.88;;;3.65;;
48203;SDS011;33994;50.998;5.864;2023-07-31T00:36:24;11.63;;;3.58;;
48203;SDS011;33994;50.998;5.864;2023-07-31T00:39:27;10.05;;;4.30;;
48203;SDS011;33994;50.998;5.864;2023-07-31T00:42:32;11.25;;;3.70;;
48203;SDS011;33994;50.998;5.864;2023-07-31T00:45:36;13.57;;;4.47;;
48203;SDS011;33994;50.998;5.864;2023-07-31T00:48:39;10.38;;;4.07;;
48203;SDS011;33994;50.998;5.864;2023-07-31T00:51:43;15.90;;;5.05;;
48203;SDS011;33994;50.998;5.864;2023-07-31T00:54:47;12.55;;;4.03;;
48203;SDS011;33994;50.998;5.864;2023-07-31T00:57:51;14.15;;;4.30;;
48203;SDS011;33994;50.998;5.864;2023-07-31T01:00:54;13.30;;;4.05;;
48203;SDS011;33994;50.998;5.864;2023-07-31T01:03:58;15.75;;;4.15;;
48203;SDS011;33994;50.998;5.864;2023-07-31T01:07:05;11.00;;;3.72;;
48203;SDS011;33994;50.998;5.864;2023-07-31T01:10:16;11.15;;;4.13;;
48203;SDS011;33994;50.998;5.864;2023-07-31T01:13:23;14.50;;;3.85;;
48203;SDS011;33994;50.998;5.864;2023-07-31T01:16:27;18.58;;;4.07;;
48203;SDS011;33994;50.998;5.864;2023-07-31T01:19:30;9.13;;;3.63;;
48203;SDS011;33994;50.998;5.864;2023-07-31T01:22:43;10.23;;;3.67;;
48203;SDS011;33994;50.998;5.864;2023-07-31T01:26:09;11.32;;;4.28;;
48203;SDS011;33994;50.998;5.864;2023-07-31T01:29:16;9.70;;;3.72;;
48203;SDS011;33994;50.998;5.864;2023-07-31T01:32:23;13.38;;;3.85;;
48203;SDS011;33994;50.998;5.864;2023-07-31T01:35:28;12.52;;;4.13;;
48203;SDS011;33994;50.998;5.864;2023-07-31T01:38:32;14.80;;;5.93;;
48203;SDS011;33994;50.998;5.864;2023-07-31T01:41:37;10.95;;;3.83;;
48203;SDS011;33994;50.998;5.864;2023-07-31T01:44:40;9.85;;;4.07;;
48203;SDS011;33994;50.998;5.864;2023-07-31T01:47:43;13.20;;;3.78;;
48203;SDS011;33994;50.998;5.864;2023-07-31T01:50:46;10.40;;;4.45;;
48203;SDS011;33994;50.998;5.864;2023-07-31T01:53:49;8.00;;;3.92;;
48203;SDS011;33994;50.998;5.864;2023-07-31T01:56:54;10.45;;;3.90;;
48203;SDS011;33994;50.998;5.864;2023-07-31T01:59:57;7.35;;;3.88;;
48203;SDS011;33994;50.998;5.864;2023-07-31T02:03:00;17.77;;;4.68;;
48203;SDS011;33994;50.998;5.864;2023-07-31T02:06:03;11.65;;;4.30;;
48203;SDS011;33994;50.998;5.864;2023-07-31T02:09:06;11.73;;;4.43;;
48203;SDS011;33994;50.998;5.864;2023-07-31T02:12:10;11.15;;;4.32;;
48203;SDS011;33994;50.998;5.864;2023-07-31T02:15:14;14.40;;;4.57;;
48203;SDS011;33994;50.998;5.864;2023-07-31T02:18:17;10.68;;;4.20;;
48203;SDS011;33994;50.998;5.864;2023-07-31T02:21:20;12.82;;;4.25;;
48203;SDS011;33994;50.998;5.864;2023-07-31T02:24:24;11.35;;;4.55;;
48203;SDS011;33994;50.998;5.864;2023-07-31T02:27:28;9.63;;;4.20;;
48203;SDS011;33994;50.998;5.864;2023-07-31T02:30:31;14.18;;;4.80;;
48203;SDS011;33994;50.998;5.864;2023-07-31T02:33:34;16.25;;;4.28;;
48203;SDS011;33994;50.998;5.864;2023-07-31T02:36:38;11.80;;;4.28;;
48203;SDS011;33994;50.998;5.864;2023-07-31T02:39:41;7.95;;;4.10;;
48203;SDS011;33994;50.998;5.864;2023-07-31T02:42:45;10.40;;;4.38;;
48203;SDS011;33994;50.998;5.864;2023-07-31T02:45:50;12.43;;;4.15;;
48203;SDS011;33994;50.998;5.864;2023-07-31T02:48:54;8.32;;;4.10;;
48203;SDS011;33994;50.998;5.864;2023-07-31T02:51:57;11.70;;;4.78;;
48203;SDS011;33994;50.998;5.864;2023-07-31T02:55:00;12.80;;;4.35;;
48203;SDS011;33994;50.998;5.864;2023-07-31T02:58:05;11.55;;;4.00;;
48203;SDS011;33994;50.998;5.864;2023-07-31T03:01:08;13.15;;;4.65;;
48203;SDS011;33994;50.998;5.864;2023-07-31T03:04:11;12.55;;;4.25;;
48203;SDS011;33994;50.998;5.864;2023-07-31T03:07:14;12.85;;;4.63;;
48203;SDS011;33994;50.998;5.864;2023-07-31T03:10:17;13.27;;;4.68;;
48203;SDS011;33994;50.998;5.864;2023-07-31T03:13:22;11.63;;;4.22;;
48203;SDS011;33994;50.998;5.864;2023-07-31T03:16:25;10.57;;;4.15;;
48203;SDS011;33994;50.998;5.864;2023-07-31T03:19:30;12.57;;;4.28;;
48203;SDS011;33994;50.998;5.864;2023-07-31T03:22:33;10.07;;;4.35;;
48203;SDS011;33994;50.998;5.864;2023-07-31T03:25:36;12.13;;;4.57;;
48203;SDS011;33994;50.998;5.864;2023-07-31T03:28:41;11.27;;;4.35;;
48203;SDS011;33994;50.998;5.864;2023-07-31T03:31:44;14.43;;;5.18;;
48203;SDS011;33994;50.998;5.864;2023-07-31T03:34:47;16.27;;;5.18;;
48203;SDS011;33994;50.998;5.864;2023-07-31T03:37:51;12.55;;;4.28;;
48203;SDS011;33994;50.998;5.864;2023-07-31T03:40:54;9.20;;;4.97;;
48203;SDS011;33994;50.998;5.864;2023-07-31T03:43:58;18.83;;;5.15;;
48203;SDS011;33994;50.998;5.864;2023-07-31T03:47:01;11.75;;;5.93;;
48203;SDS011;33994;50.998;5.864;2023-07-31T03:50:05;14.43;;;4.90;;
48203;SDS011;33994;50.998;5.864;2023-07-31T03:53:09;10.13;;;4.25;;
48203;SDS011;33994;50.998;5.864;2023-07-31T03:56:12;10.80;;;4.43;;
48203;SDS011;33994;50.998;5.864;2023-07-31T03:59:17;11.93;;;4.45;;
48203;SDS011;33994;50.998;5.864;2023-07-31T04:02:20;11.88;;;4.82;;
48203;SDS011;33994;50.998;5.864;2023-07-31T04:05:23;8.98;;;4.20;;
48203;SDS011;33994;50.998;5.864;2023-07-31T04:08:27;10.93;;;4.13;;
48203;SDS011;33994;50.998;5.864;2023-07-31T04:11:30;10.05;;;4.32;;
48203;SDS011;33994;50.998;5.864;2023-07-31T04:14:34;8.18;;;4.00;;
48203;SDS011;33994;50.998;5.864;2023-07-31T04:17:37;8.00;;;3.95;;
48203;SDS011;33994;50.998;5.864;2023-07-31T04:20:41;10.63;;;4.25;;
48203;SDS011;33994;50.998;5.864;2023-07-31T04:23:43;11.27;;;4.07;;
48203;SDS011;33994;50.998;5.864;2023-07-31T04:26:47;7.93;;;3.90;;
48203;SDS011;33994;50.998;5.864;2023-07-31T04:29:51;13.45;;;4.82;;
48203;SDS011;33994;50.998;5.864;2023-07-31T04:32:55;10.15;;;4.25;;
48203;SDS011;33994;50.998;5.864;2023-07-31T04:35:58;7.90;;;4.18;;
48203;SDS011;33994;50.998;5.864;2023-07-31T04:39:01;6.15;;;3.58;;
48203;SDS011;33994;50.998;5.864;2023-07-31T04:42:05;10.45;;;4.13;;
48203;SDS011;33994;50.998;5.864;2023-07-31T04:45:10;7.63;;;3.50;;
48203;SDS011;33994;50.998;5.864;2023-07-31T04:48:13;4.97;;;3.40;;
48203;SDS011;33994;50.998;5.864;2023-07-31T04:51:16;7.82;;;3.55;;
48203;SDS011;33994;50.998;5.864;2023-07-31T04:54:19;9.43;;;3.58;;
48203;SDS011;33994;50.998;5.864;2023-07-31T04:57:23;7.10;;;3.85;;
48203;SDS011;33994;50.998;5.864;2023-07-31T05:00:27;10.20;;;3.35;;
48203;SDS011;33994;50.998;5.864;2023-07-31T05:03:30;8.90;;;3.80;;
48203;SDS011;33994;50.998;5.864;2023-07-31T05:06:33;7.97;;;3.60;;
48203;SDS011;33994;50.998;5.864;2023-07-31T05:09:37;6.55;;;3.78;;
48203;SDS011;33994;50.998;5.864;2023-07-31T05:12:40;10.93;;;4.15;;
48203;SDS011;33994;50.998;5.864;2023-07-31T05:15:44;11.90;;;3.75;;
48203;SDS011;33994;50.998;5.864;2023-07-31T05:18:48;7.25;;;3.92;;
48203;SDS011;33994;50.998;5.864;2023-07-31T05:21:51;10.80;;;4.45;;
48203;SDS011;33994;50.998;5.864;2023-07-31T05:24:54;8.23;;;3.60;;
48203;SDS011;33994;50.998;5.864;2023-07-31T05:27:57;9.88;;;3.78;;
48203;SDS011;33994;50.998;5.864;2023-07-31T05:31:02;10.52;;;3.72;;
48203;SDS011;33994;50.998;5.864;2023-07-31T05:34:06;9.82;;;3.30;;
48203;SDS011;33994;50.998;5.864;2023-07-31T05:37:09;7.93;;;3.80;;
48203;SDS011;33994;50.998;5.864;2023-07-31T05:40:13;9.43;;;3.80;;
48203;SDS011;33994;50.998;5.864;2023-07-31T05:43:17;11.77;;;4.05;;
48203;SDS011;33994;50.998;5.864;2023-07-31T05:46:22;11.75;;;4.13;;
48203;SDS011;33994;50.998;5.864;2023-07-31T05:49:25;8.02;;;3.58;;
48203;SDS011;33994;50.998;5.864;2023-07-31T05:52:28;9.15;;;4.50;;
48203;SDS011;33994;50.998;5.864;2023-07-31T05:55:31;10.32;;;4.25;;
48203;SDS011;33994;50.998;5.864;2023-07-31T05:58:34;11.73;;;3.70;;
48203;SDS011;33994;50.998;5.864;2023-07-31T06:01:39;9.07;;;4.90;;
48203;SDS011;33994;50.998;5.864;2023-07-31T06:04:42;12.50;;;3.85;;
48203;SDS011;33994;50.998;5.864;2023-07-31T06:07:45;9.38;;;3.88;;
48203;SDS011;33994;50.998;5.864;2023-07-31T06:10:49;10.23;;;3.97;;
48203;SDS011;33994;50.998;5.864;2023-07-31T06:13:52;9.75;;;3.60;;
48203;SDS011;33994;50.998;5.864;2023-07-31T06:16:56;9.60;;;3.47;;
48203;SDS011;33994;50.998;5.864;2023-07-31T06:20:00;8.65;;;3.67;;
48203;SDS011;33994;50.998;5.864;2023-07-31T06:23:03;10.50;;;3.70;;
48203;SDS011;33994;50.998;5.864;2023-07-31T06:26:06;9.18;;;4.25;;
48203;SDS011;33994;50.998;5.864;2023-07-31T06:29:09;8.45;;;3.70;;
48203;SDS011;33994;50.998;5.864;2023-07-31T06:32:14;11.15;;;3.90;;
48203;SDS011;33994;50.998;5.864;2023-07-31T06:35:17;6.03;;;3.20;;
48203;SDS011;33994;50.998;5.864;2023-07-31T06:38:22;6.85;;;3.13;;
48203;SDS011;33994;50.998;5.864;2023-07-31T06:41:27;7.07;;;3.83;;
48203;SDS011;33994;50.998;5.864;2023-07-31T06:44:30;10.13;;;3.67;;
48203;SDS011;33994;50.998;5.864;2023-07-31T06:47:35;8.23;;;3.25;;
48203;SDS011;33994;50.998;5.864;2023-07-31T06:50:38;9.88;;;4.00;;
48203;SDS011;33994;50.998;5.864;2023-07-31T06:53:41;9.68;;;3.85;;
48203;SDS011;33994;50.998;5.864;2023-07-31T06:56:44;7.07;;;3.67;;
48203;SDS011;33994;50.998;5.864;2023-07-31T06:59:47;8.68;;;3.60;;
48203;SDS011;33994;50.998;5.864;2023-07-31T07:02:52;9.02;;;3.60;;
48203;SDS011;33994;50.998;5.864;2023-07-31T07:05:55;10.55;;;4.97;;
48203;SDS011;33994;50.998;5.864;2023-07-31T07:08:58;8.38;;;3.60;;
48203;SDS011;33994;50.998;5.864;2023-07-31T07:12:02;8.25;;;4.15;;
48203;SDS011;33994;50.998;5.864;2023-07-31T07:15:05;10.65;;;3.90;;
48203;SDS011;33994;50.998;5.864;2023-07-31T07:18:11;7.38;;;3.75;;
48203;SDS011;33994;50.998;5.864;2023-07-31T07:21:14;9.15;;;4.13;;
48203;SDS011;33994;50.998;5.864;2023-07-31T07:24:17;13.82;;;4.15;;
48203;SDS011;33994;50.998;5.864;2023-07-31T07:27:21;8.10;;;3.70;;
48203;SDS011;33994;50.998;5.864;2023-07-31T07:30:24;8.75;;;5.25;;
48203;SDS011;33994;50.998;5.864;2023-07-31T07:33:29;10.68;;;4.63;;
48203;SDS011;33994;50.998;5.864;2023-07-31T07:36:32;10.05;;;3.72;;
48203;SDS011;33994;50.998;5.864;2023-07-31T07:39:35;10.30;;;4.15;;
48203;SDS011;33994;50.998;5.864;2023-07-31T07:42:38;12.55;;;4.05;;
48203;SDS011;33994;50.998;5.864;2023-07-31T07:45:41;7.43;;;3.85;;
48203;SDS011;33994;50.998;5.864;2023-07-31T07:48:46;9.88;;;3.50;;
48203;SDS011;33994;50.998;5.864;2023-07-31T07:51:49;8.02;;;4.10;;
48203;SDS011;33994;50.998;5.864;2023-07-31T07:54:53;8.68;;;3.75;;
48203;SDS011;33994;50.998;5.864;2023-07-31T07:57:56;7.68;;;4.15;;
48203;SDS011;33994;50.998;5.864;2023-07-31T08:00:59;11.43;;;3.90;;
48203;SDS011;33994;50.998;5.864;2023-07-31T08:04:04;7.97;;;3.90;;
48203;SDS011;33994;50.998;5.864;2023-07-31T08:07:07;6.90;;;3.47;;
48203;SDS011;33994;50.998;5.864;2023-07-31T08:10:10;8.25;;;3.83;;
48203;SDS011;33994;50.998;5.864;2023-07-31T08:13:13;9.13;;;3.97;;
48203;SDS011;33994;50.998;5.864;2023-07-31T08:16:16;9.77;;;4.03;;
48203;SDS011;33994;50.998;5.864;2023-07-31T08:19:21;9.90;;;3.95;;
48203;SDS011;33994;50.998;5.864;2023-07-31T08:22:24;10.18;;;3.95;;
48203;SDS011;33994;50.998;5.864;2023-07-31T08:25:27;13.35;;;4.38;;
48203;SDS011;33994;50.998;5.864;2023-07-31T08:28:31;7.68;;;4.25;;
48203;SDS011;33994;50.998;5.864;2023-07-31T08:31:34;9.43;;;4.53;;
48203;SDS011;33994;50.998;5.864;2023-07-31T08:34:39;6.43;;;4.20;;
48203;SDS011;33994;50.998;5.864;2023-07-31T08:37:41;8.60;;;4.38;;
48203;SDS011;33994;50.998;5.864;2023-07-31T08:40:44;8.00;;;3.80;;
48203;SDS011;33994;50.998;5.864;2023-07-31T08:43:49;11.45;;;4.38;;
48203;SDS011;33994;50.998;5.864;2023-07-31T08:46:53;20.15;;;4.60;;
48203;SDS011;33994;50.998;5.864;2023-07-31T08:49:57;7.70;;;3.75;;
48203;SDS011;33994;50.998;5.864;2023-07-31T08:53:01;7.53;;;3.80;;
48203;SDS011;33994;50.998;5.864;2023-07-31T08:56:04;7.53;;;3.60;;
48203;SDS011;33994;50.998;5.864;2023-07-31T08:59:09;12.75;;;4.60;;
48203;SDS011;33994;50.998;5.864;2023-07-31T09:02:14;9.90;;;3.63;;
48203;SDS011;33994;50.998;5.864;2023-07-31T09:05:21;7.22;;;3.30;;
48203;SDS011;33994;50.998;5.864;2023-07-31T09:08:26;6.93;;;3.42;;
48203;SDS011;33994;50.998;5.864;2023-07-31T09:11:33;12.80;;;3.97;;
48203;SDS011;33994;50.998;5.864;2023-07-31T09:14:36;8.07;;;3.35;;
48203;SDS011;33994;50.998;5.864;2023-07-31T09:17:40;9.73;;;3.60;;
48203;SDS011;33994;50.998;5.864;2023-07-31T09:20:45;7.45;;;3.50;;
48203;SDS011;33994;50.998;5.864;2023-07-31T09:23:49;10.43;;;4.70;;
48203;SDS011;33994;50.998;5.864;2023-07-31T09:26:53;7.10;;;3.50;;
48203;SDS011;33994;50.998;5.864;2023-07-31T09:29:58;7.00;;;3.15;;
48203;SDS011;33994;50.998;5.864;2023-07-31T09:33:02;6.47;;;3.40;;
48203;SDS011;33994;50.998;5.864;2023-07-31T09:36:08;10.57;;;3.58;;
48203;SDS011;33994;50.998;5.864;2023-07-31T09:39:11;11.80;;;3.78;;
48203;SDS011;33994;50.998;5.864;2023-07-31T09:42:24;10.45;;;3.78;;
48203;SDS011;33994;50.998;5.864;2023-07-31T09:45:28;11.07;;;3.20;;
48203;SDS011;33994;50.998;5.864;2023-07-31T09:48:32;7.15;;;3.55;;
48203;SDS011;33994;50.998;5.864;2023-07-31T09:51:36;9.68;;;3.50;;
48203;SDS011;33994;50.998;5.864;2023-07-31T09:54:40;6.45;;;3.15;;
48203;SDS011;33994;50.998;5.864;2023-07-31T09:57:44;6.70;;;3.17;;
48203;SDS011;33994;50.998;5.864;2023-07-31T10:00:48;7.85;;;3.05;;
48203;SDS011;33994;50.998;5.864;2023-07-31T10:03:51;7.63;;;3.03;;
48203;SDS011;33994;50.998;5.864;2023-07-31T10:06:56;9.35;;;3.13;;
48203;SDS011;33994;50.998;5.864;2023-07-31T10:10:01;4.03;;;2.65;;
48203;SDS011;33994;50.998;5.864;2023-07-31T10:13:07;7.03;;;2.47;;
48203;SDS011;33994;50.998;5.864;2023-07-31T10:16:11;5.32;;;2.28;;
48203;SDS011;33994;50.998;5.864;2023-07-31T10:19:16;6.53;;;2.28;;
48203;SDS011;33994;50.998;5.864;2023-07-31T10:22:21;4.88;;;2.28;;
48203;SDS011;33994;50.998;5.864;2023-07-31T10:25:26;2.83;;;1.83;;
48203;SDS011;33994;50.998;5.864;2023-07-31T10:28:29;6.13;;;2.03;;
48203;SDS011;33994;50.998;5.864;2023-07-31T10:31:35;2.97;;;1.98;;
48203;SDS011;33994;50.998;5.864;2023-07-31T10:34:39;4.35;;;1.80;;
48203;SDS011;33994;50.998;5.864;2023-07-31T10:37:44;6.70;;;2.20;;
48203;SDS011;33994;50.998;5.864;2023-07-31T10:40:47;5.53;;;1.70;;
48203;SDS011;33994;50.998;5.864;2023-07-31T10:43:54;3.85;;;1.73;;
48203;SDS011;33994;50.998;5.864;2023-07-31T10:47:00;3.30;;;1.52;;
48203;SDS011;33994;50.998;5.864;2023-07-31T10:50:16;5.47;;;2.30;;
48203;SDS011;33994;50.998;5.864;2023-07-31T10:53:25;4.45;;;2.03;;
48203;SDS011;33994;50.998;5.864;2023-07-31T10:56:29;2.38;;;1.70;;
48203;SDS011;33994;50.998;5.864;2023-07-31T10:59:40;4.03;;;1.88;;
48203;SDS011;33994;50.998;5.864;2023-07-31T11:02:43;7.15;;;2.03;;
48203;SDS011;33994;50.998;5.864;2023-07-31T11:06:01;4.20;;;1.88;;
48203;SDS011;33994;50.998;5.864;2023-07-31T11:09:06;2.88;;;1.80;;
48203;SDS011;33994;50.998;5.864;2023-07-31T11:12:09;5.10;;;2.53;;
48203;SDS011;33994;50.998;5.864;2023-07-31T11:15:12;6.60;;;2.22;;
48203;SDS011;33994;50.998;5.864;2023-07-31T11:18:16;4.95;;;2.42;;
48203;SDS011;33994;50.998;5.864;2023-07-31T11:21:20;4.13;;;2.60;;
48203;SDS011;33994;50.998;5.864;2023-07-31T11:24:25;5.82;;;2.60;;
48203;SDS011;33994;50.998;5.864;2023-07-31T11:27:29;5.45;;;2.92;;
48203;SDS011;33994;50.998;5.864;2023-07-31T11:30:33;5.22;;;2.95;;
48203;SDS011;33994;50.998;5.864;2023-07-31T11:33:36;4.57;;;2.78;;
48203;SDS011;33994;50.998;5.864;2023-07-31T11:36:39;7.32;;;3.30;;
48203;SDS011;33994;50.998;5.864;2023-07-31T11:39:44;5.07;;;3.25;;
48203;SDS011;33994;50.998;5.864;2023-07-31T11:43:04;4.38;;;3.05;;
48203;SDS011;33994;50.998;5.864;2023-07-31T11:46:09;6.72;;;4.07;;
48203;SDS011;33994;50.998;5.864;2023-07-31T11:49:12;8.00;;;4.50;;
48203;SDS011;33994;50.998;5.864;2023-07-31T11:52:15;11.10;;;4.20;;
48203;SDS011;33994;50.998;5.864;2023-07-31T11:55:21;8.25;;;4.50;;
48203;SDS011;33994;50.998;5.864;2023-07-31T11:58:25;7.97;;;4.25;;
48203;SDS011;33994;50.998;5.864;2023-07-31T12:01:29;7.05;;;4.05;;
48203;SDS011;33994;50.998;5.864;2023-07-31T12:04:33;9.13;;;4.55;;
48203;SDS011;33994;50.998;5.864;2023-07-31T12:07:43;7.25;;;4.10;;
48203;SDS011;33994;50.998;5.864;2023-07-31T12:10:48;7.03;;;3.85;;
48203;SDS011;33994;50.998;5.864;2023-07-31T12:13:53;8.75;;;4.60;;
48203;SDS011;33994;50.998;5.864;2023-07-31T12:16:56;5.05;;;3.30;;
48203;SDS011;33994;50.998;5.864;2023-07-31T12:20:00;5.72;;;3.95;;
48203;SDS011;33994;50.998;5.864;2023-07-31T12:23:07;8.63;;;3.47;;
48203;SDS011;33994;50.998;5.864;2023-07-31T12:26:16;9.43;;;4.30;;
48203;SDS011;33994;50.998;5.864;2023-07-31T12:29:19;11.07;;;4.95;;
48203;SDS011;33994;50.998;5.864;2023-07-31T12:32:23;7.95;;;3.95;;
48203;SDS011;33994;50.998;5.864;2023-07-31T12:35:30;8.07;;;4.22;;
48203;SDS011;33994;50.998;5.864;2023-07-31T12:38:38;7.53;;;3.78;;
48203;SDS011;33994;50.998;5.864;2023-07-31T12:41:43;8.07;;;3.92;;
48203;SDS011;33994;50.998;5.864;2023-07-31T12:44:46;9.65;;;4.20;;
48203;SDS011;33994;50.998;5.864;2023-07-31T12:47:49;6.55;;;3.67;;
48203;SDS011;33994;50.998;5.864;2023-07-31T12:50:52;8.80;;;4.00;;
48203;SDS011;33994;50.998;5.864;2023-07-31T12:53:56;7.78;;;3.65;;
48203;SDS011;33994;50.998;5.864;2023-07-31T12:57:00;10.43;;;3.47;;
48203;SDS011;33994;50.998;5.864;2023-07-31T13:00:04;6.60;;;3.28;;
48203;SDS011;33994;50.998;5.864;2023-07-31T13:03:08;11.02;;;3.60;;
48203;SDS011;33994;50.998;5.864;2023-07-31T13:06:11;8.48;;;4.30;;
48203;SDS011;33994;50.998;5.864;2023-07-31T13:09:14;6.70;;;3.10;;
48203;SDS011;33994;50.998;5.864;2023-07-31T13:12:19;7.50;;;3.60;;
48203;SDS011;33994;50.998;5.864;2023-07-31T13:15:21;6.32;;;3.13;;
48203;SDS011;33994;50.998;5.864;2023-07-31T13:18:25;7.65;;;3.20;;
48203;SDS011;33994;50.998;5.864;2023-07-31T13:21:28;5.88;;;3.05;;
48203;SDS011;33994;50.998;5.864;2023-07-31T13:24:31;8.43;;;3.33;;
48203;SDS011;33994;50.998;5.864;2023-07-31T13:27:36;6.93;;;3.03;;
48203;SDS011;33994;50.998;5.864;2023-07-31T13:30:39;5.32;;;3.10;;
48203;SDS011;33994;50.998;5.864;2023-07-31T13:33:42;6.70;;;3.30;;
48203;SDS011;33994;50.998;5.864;2023-07-31T13:36:45;7.55;;;3.20;;
48203;SDS011;33994;50.998;5.864;2023-07-31T13:39:49;7.97;;;2.88;;
48203;SDS011;33994;50.998;5.864;2023-07-31T13:42:53;4.57;;;3.20;;
48203;SDS011;33994;50.998;5.864;2023-07-31T13:45:56;7.47;;;3.15;;
48203;SDS011;33994;50.998;5.864;2023-07-31T13:48:59;4.85;;;3.08;;
48203;SDS011;33994;50.998;5.864;2023-07-31T13:52:03;5.32;;;3.30;;
48203;SDS011;33994;50.998;5.864;2023-07-31T13:55:07;5.97;;;3.40;;
48203;SDS011;33994;50.998;5.864;2023-07-31T13:58:12;7.28;;;3.83;;
48203;SDS011;33994;50.998;5.864;2023-07-31T14:01:15;7.00;;;3.55;;
48203;SDS011;33994;50.998;5.864;2023-07-31T14:04:18;5.32;;;3.58;;
48203;SDS011;33994;50.998;5.864;2023-07-31T14:07:21;8.55;;;3.95;;
48203;SDS011;33994;50.998;5.864;2023-07-31T14:10:24;7.53;;;3.97;;
48203;SDS011;33994;50.998;5.864;2023-07-31T14:13:29;10.07;;;4.00;;
48203;SDS011;33994;50.998;5.864;2023-07-31T14:16:32;8.00;;;4.47;;
48203;SDS011;33994;50.998;5.864;2023-07-31T14:19:35;10.20;;;3.75;;
48203;SDS011;33994;50.998;5.864;2023-07-31T14:22:38;9.00;;;4.40;;
48203;SDS011;33994;50.998;5.864;2023-07-31T14:25:41;8.85;;;3.92;;
48203;SDS011;33994;50.998;5.864;2023-07-31T14:28:46;7.70;;;3.47;;
48203;SDS011;33994;50.998;5.864;2023-07-31T14:31:49;8.32;;;4.18;;
48203;SDS011;33994;50.998;5.864;2023-07-31T14:34:52;7.53;;;3.83;;
48203;SDS011;33994;50.998;5.864;2023-07-31T14:37:55;8.30;;;3.63;;
48203;SDS011;33994;50.998;5.864;2023-07-31T14:40:59;9.15;;;3.90;;
48203;SDS011;33994;50.998;5.864;2023-07-31T14:44:03;6.97;;;3.45;;
48203;SDS011;33994;50.998;5.864;2023-07-31T14:47:06;7.00;;;3.75;;
48203;SDS011;33994;50.998;5.864;2023-07-31T14:50:10;6.85;;;3.33;;
48203;SDS011;33994;50.998;5.864;2023-07-31T14:53:13;8.07;;;3.78;;
48203;SDS011;33994;50.998;5.864;2023-07-31T14:56:16;9.68;;;3.70;;
48203;SDS011;33994;50.998;5.864;2023-07-31T14:59:21;6.03;;;3.38;;
48203;SDS011;33994;50.998;5.864;2023-07-31T15:02:25;5.88;;;3.33;;
48203;SDS011;33994;50.998;5.864;2023-07-31T15:05:28;8.05;;;3.97;;
48203;SDS011;33994;50.998;5.864;2023-07-31T15:08:31;9.52;;;4.00;;
48203;SDS011;33994;50.998;5.864;2023-07-31T15:11:34;6.07;;;3.15;;
48203;SDS011;33994;50.998;5.864;2023-07-31T15:14:39;7.22;;;3.42;;
48203;SDS011;33994;50.998;5.864;2023-07-31T15:17:42;8.55;;;3.67;;
48203;SDS011;33994;50.998;5.864;2023-07-31T15:20:45;12.25;;;3.75;;
48203;SDS011;33994;50.998;5.864;2023-07-31T15:23:49;5.60;;;3.72;;
48203;SDS011;33994;50.998;5.864;2023-07-31T15:26:52;7.20;;;3.45;;
48203;SDS011;33994;50.998;5.864;2023-07-31T15:29:56;7.25;;;3.83;;
48203;SDS011;33994;50.998;5.864;2023-07-31T15:33:00;7.85;;;4.15;;
48203;SDS011;33994;50.998;5.864;2023-07-31T15:36:03;7.95;;;4.03;;
48203;SDS011;33994;50.998;5.864;2023-07-31T15:39:06;4.70;;;2.90;;
48203;SDS011;33994;50.998;5.864;2023-07-31T16:08:31;4.37;;;2.70;;
48203;SDS011;33994;50.998;5.864;2023-07-31T16:11:34;5.18;;;2.83;;
48203;SDS011;33994;50.998;5.864;2023-07-31T16:14:37;4.55;;;2.90;;
48203;SDS011;33994;50.998;5.864;2023-07-31T16:17:40;7.32;;;3.42;;
48203;SDS011;33994;50.998;5.864;2023-07-31T16:20:44;4.95;;;2.90;;
48203;SDS011;33994;50.998;5.864;2023-07-31T16:23:48;6.85;;;3.22;;
48203;SDS011;33994;50.998;5.864;2023-07-31T16:26:52;7.47;;;3.97;;
48203;SDS011;33994;50.998;5.864;2023-07-31T16:29:55;6.40;;;3.40;;
48203;SDS011;33994;50.998;5.864;2023-07-31T16:32:58;7.47;;;3.35;;
48203;SDS011;33994;50.998;5.864;2023-07-31T16:36:02;7.85;;;4.32;;
48203;SDS011;33994;50.998;5.864;2023-07-31T16:39:06;6.75;;;3.55;;
48203;SDS011;33994;50.998;5.864;2023-07-31T16:42:09;6.75;;;3.25;;
48203;SDS011;33994;50.998;5.864;2023-07-31T16:45:13;7.80;;;3.85;;
48203;SDS011;33994;50.998;5.864;2023-07-31T16:48:16;6.95;;;3.35;;
48203;SDS011;33994;50.998;5.864;2023-07-31T16:51:19;7.95;;;3.42;;
48203;SDS011;33994;50.998;5.864;2023-07-31T16:54:23;7.10;;;3.45;;
48203;SDS011;33994;50.998;5.864;2023-07-31T16:57:26;6.28;;;3.10;;
48203;SDS011;33994;50.998;5.864;2023-07-31T17:00:30;4.47;;;2.95;;
48203;SDS011;33994;50.998;5.864;2023-07-31T17:03:32;5.88;;;3.30;;
48203;SDS011;33994;50.998;5.864;2023-07-31T17:06:36;6.80;;;2.95;;
48203;SDS011;33994;50.998;5.864;2023-07-31T17:09:40;6.82;;;2.75;;
48203;SDS011;33994;50.998;5.864;2023-07-31T17:12:44;6.05;;;3.35;;
48203;SDS011;33994;50.998;5.864;2023-07-31T17:15:47;6.97;;;2.70;;
48203;SDS011;33994;50.998;5.864;2023-07-31T17:18:50;4.82;;;2.45;;
48203;SDS011;33994;50.998;5.864;2023-07-31T17:21:54;5.32;;;2.55;;
48203;SDS011;33994;50.998;5.864;2023-07-31T17:24:58;4.65;;;2.30;;
48203;SDS011;33994;50.998;5.864;2023-07-31T17:28:01;4.22;;;2.65;;
48203;SDS011;33994;50.998;5.864;2023-07-31T17:31:04;5.15;;;3.10;;
48203;SDS011;33994;50.998;5.864;2023-07-31T17:34:08;5.53;;;2.58;;
48203;SDS011;33994;50.998;5.864;2023-07-31T17:37:11;5.57;;;2.10;;
48203;SDS011;33994;50.998;5.864;2023-07-31T17:40:16;2.70;;;1.90;;
48203;SDS011;33994;50.998;5.864;2023-07-31T17:43:19;4.88;;;2.17;;
48203;SDS011;33994;50.998;5.864;2023-07-31T17:46:22;5.38;;;2.70;;
48203;SDS011;33994;50.998;5.864;2023-07-31T17:49:25;3.47;;;2.03;;
48203;SDS011;33994;50.998;5.864;2023-07-31T17:52:28;3.50;;;2.00;;
48203;SDS011;33994;50.998;5.864;2023-07-31T17:55:33;3.22;;;1.70;;
48203;SDS011;33994;50.998;5.864;2023-07-31T17:58:37;3.90;;;1.60;;
48203;SDS011;33994;50.998;5.864;2023-07-31T18:01:40;5.35;;;1.80;;
48203;SDS011;33994;50.998;5.864;2023-07-31T18:04:43;4.20;;;1.88;;
48203;SDS011;33994;50.998;5.864;2023-07-31T18:07:46;3.53;;;1.80;;
48203;SDS011;33994;50.998;5.864;2023-07-31T18:10:51;2.45;;;1.45;;
48203;SDS011;33994;50.998;5.864;2023-07-31T18:13:54;2.95;;;1.60;;
48203;SDS011;33994;50.998;5.864;2023-07-31T18:16:57;2.85;;;1.50;;
48203;SDS011;33994;50.998;5.864;2023-07-31T18:20:01;3.45;;;1.40;;
48203;SDS011;33994;50.998;5.864;2023-07-31T18:23:04;2.72;;;1.63;;
48203;SDS011;33994;50.998;5.864;2023-07-31T18:26:08;3.88;;;1.70;;
48203;SDS011;33994;50.998;5.864;2023-07-31T18:29:11;2.00;;;1.40;;
48203;SDS011;33994;50.998;5.864;2023-07-31T18:32:15;5.28;;;1.60;;
48203;SDS011;33994;50.998;5.864;2023-07-31T18:35:18;5.50;;;1.60;;
48203;SDS011;33994;50.998;5.864;2023-07-31T18:38:21;4.07;;;1.60;;
48203;SDS011;33994;50.998;5.864;2023-07-31T18:41:25;1.77;;;1.20;;
48203;SDS011;33994;50.998;5.864;2023-07-31T18:44:29;2.20;;;1.50;;
48203;SDS011;33994;50.998;5.864;2023-07-31T18:47:32;2.40;;;1.38;;
48203;SDS011;33994;50.998;5.864;2023-07-31T18:50:39;2.20;;;1.27;;